Time;durP1;ratioP1;P1;durP2;ratioP2;P2;SDS_P1;SDS_P2;PMS_P1;PMS_P2;Temp;Humidity;BMP_temperature;BMP_pressure;BME280_temperature;BME280_humidity;BME280_pressure;Samples;Min_cycle;Max_cycle;Signal;HPM_P1;HPM_P2
2022/11/22 00:00:07;;;;;;;39.90;15.55;;;4.10;98.90;;;;;;5094082;28;20046;-71
2022/11/22 00:02:33;;;;;;;42.17;17.20;;;4.10;98.90;;;;;;5076562;28;20381;-71
2022/11/22 00:04:59;;;;;;;44.70;16.90;;;3.90;99.00;;;;;;5094195;28;20039;-71
2022/11/22 00:07:25;;;;;;;43.25;17.15;;;3.90;99.10;;;;;;5093899;28;20036;-70
2022/11/22 00:09:50;;;;;;;47.50;17.52;;;3.90;99.30;;;;;;5076500;28;20030;-71
2022/11/22 00:12:16;;;;;;;48.63;18.40;;;3.90;99.30;;;;;;5093991;28;20347;-71
2022/11/22 00:14:42;;;;;;;49.15;18.63;;;3.80;99.60;;;;;;5093918;28;20027;-70
2022/11/22 00:17:08;;;;;;;51.38;18.73;;;3.80;99.60;;;;;;5093842;28;20028;-71
2022/11/22 00:19:34;;;;;;;55.78;19.80;;;3.90;99.60;;;;;;5075796;28;20085;-71
2022/11/22 00:22:00;;;;;;;54.40;19.10;;;3.90;99.50;;;;;;5094451;28;20023;-72
2022/11/22 00:24:27;;;;;;;51.85;19.20;;;3.90;99.60;;;;;;5093662;28;20128;-71
2022/11/22 00:26:52;;;;;;;56.88;20.52;;;3.90;99.70;;;;;;5093570;28;20039;-70
2022/11/22 00:29:18;;;;;;;57.33;19.35;;;3.90;99.70;;;;;;5093553;28;20036;-70
2022/11/22 00:31:44;;;;;;;54.22;19.65;;;4.00;99.70;;;;;;5093585;28;20077;-70
2022/11/22 00:34:09;;;;;;;48.28;18.75;;;3.90;99.70;;;;;;5093427;28;20059;-70
2022/11/22 00:36:35;;;;;;;52.28;17.95;;;3.90;99.70;;;;;;5094144;28;20032;-70
2022/11/22 00:39:00;;;;;;;52.95;18.85;;;3.90;99.80;;;;;;5093630;28;20035;-71
2022/11/22 00:41:26;;;;;;;54.58;19.40;;;3.80;99.90;;;;;;5093234;28;20024;-70
2022/11/22 00:43:52;;;;;;;45.90;17.75;;;3.80;99.90;;;;;;5093346;28;20466;-71
2022/11/22 00:46:17;;;;;;;58.97;20.65;;;3.80;99.90;;;;;;5093117;28;20358;-70
2022/11/22 00:48:43;;;;;;;49.97;19.38;;;3.80;99.90;;;;;;5093691;28;20036;-70
2022/11/22 00:51:09;;;;;;;53.58;20.02;;;3.70;99.90;;;;;;5093095;28;20024;-71
2022/11/22 00:53:34;;;;;;;56.13;20.05;;;3.70;99.90;;;;;;5093067;28;20115;-70
2022/11/22 00:56:00;;;;;;;48.67;17.63;;;3.70;99.90;;;;;;5093111;28;20032;-71
2022/11/22 00:58:25;;;;;;;52.30;19.52;;;3.70;99.90;;;;;;5093086;28;20036;-71
2022/11/22 01:00:51;;;;;;;62.00;20.40;;;3.70;99.90;;;;;;5093841;28;20074;-71
2022/11/22 01:03:17;;;;;;;53.85;19.92;;;3.80;99.90;;;;;;5092782;28;20024;-71
2022/11/22 01:05:42;;;;;;;60.75;20.55;;;3.70;99.90;;;;;;5074841;28;20031;-69
2022/11/22 01:08:08;;;;;;;61.15;21.23;;;3.70;99.90;;;;;;5092750;28;20039;-70
2022/11/22 01:10:35;;;;;;;64.22;20.80;;;3.70;99.90;;;;;;5092901;28;20029;-70
2022/11/22 01:13:01;;;;;;;60.65;20.08;;;3.80;99.90;;;;;;5093292;28;20028;-71
2022/11/22 01:15:27;;;;;;;59.10;20.33;;;3.80;99.90;;;;;;5092836;28;20450;-71
2022/11/22 01:17:53;;;;;;;57.35;20.02;;;3.90;99.90;;;;;;5074969;28;20202;-71
2022/11/22 01:20:18;;;;;;;61.72;21.60;;;3.80;99.90;;;;;;5092668;28;20044;-71
2022/11/22 01:22:44;;;;;;;52.97;20.40;;;3.90;99.90;;;;;;5092499;28;20458;-72
2022/11/22 01:25:10;;;;;;;54.13;19.88;;;3.90;99.90;;;;;;5092477;28;20038;-70
2022/11/22 01:27:36;;;;;;;64.70;21.30;;;3.90;99.90;;;;;;5092726;28;20032;-71
2022/11/22 01:30:02;;;;;;;53.10;20.38;;;3.90;99.90;;;;;;5074714;28;20061;-70
2022/11/22 01:32:28;;;;;;;61.92;21.50;;;3.90;99.90;;;;;;5074665;28;20034;-72
2022/11/22 01:34:54;;;;;;;58.28;22.23;;;3.90;99.90;;;;;;5074470;28;20036;-71
2022/11/22 01:37:19;;;;;;;54.92;19.52;;;3.90;99.90;;;;;;5074392;28;20027;-71
2022/11/22 01:39:45;;;;;;;65.93;22.63;;;3.90;99.90;;;;;;5093277;28;20513;-71
2022/11/22 01:42:11;;;;;;;58.40;20.63;;;4.00;99.90;;;;;;5092475;28;20342;-71
2022/11/22 01:44:41;;;;;;;57.22;21.73;;;3.90;99.90;;;;;;5079308;28;20040;-73
2022/11/22 01:47:13;;;;;;;65.25;20.83;;;4.00;99.90;;;;;;5071956;28;20079;-70
2022/11/22 01:49:54;;;;;;;54.08;20.60;;;4.00;99.90;;;;;;5071721;28;20087;-71
2022/11/22 01:52:24;;;;;;;59.53;21.85;;;4.10;99.90;;;;;;5071890;28;20136;-73
2022/11/22 01:54:58;;;;;;;56.70;20.08;;;4.20;99.90;;;;;;5070965;28;20079;-71
2022/11/22 01:57:29;;;;;;;58.28;21.23;;;4.30;99.90;;;;;;5071669;28;20539;-71
2022/11/22 02:00:03;;;;;;;57.58;20.50;;;4.20;99.90;;;;;;5071583;28;20151;-71
2022/11/22 02:02:28;;;;;;;58.63;20.67;;;4.20;99.90;;;;;;5070392;28;20052;-72
2022/11/22 02:04:56;;;;;;;51.45;20.00;;;4.20;99.90;;;;;;5070340;28;20493;-71
2022/11/22 02:07:22;;;;;;;;;;;4.10;99.90;;;;;;5071738;28;20103;-69
2022/11/22 02:09:50;;;;;;;52.22;19.23;;;4.10;99.90;;;;;;5071666;28;19990;-70
2022/11/22 02:12:17;;;;;;;59.63;19.88;;;4.20;99.90;;;;;;5071548;28;20490;-70
2022/11/22 02:14:44;;;;;;;53.00;20.20;;;4.10;99.90;;;;;;5071119;28;20036;-70
2022/11/22 02:17:10;;;;;;;45.55;19.33;;;4.20;99.90;;;;;;5070952;28;20040;-71
2022/11/22 02:19:46;;;;;;;47.47;19.42;;;4.30;99.90;;;;;;5070170;28;20039;-71
2022/11/22 02:22:38;;;;;;;55.40;20.75;;;4.20;99.90;;;;;;5071190;28;20101;-70
2022/11/22 02:25:26;;;;;;;55.45;19.73;;;4.30;99.90;;;;;;5071463;28;20039;-72
2022/11/22 02:27:52;;;;;;;50.17;18.77;;;4.30;99.90;;;;;;5071024;28;20470;-70
2022/11/22 02:30:18;;;;;;;55.28;19.15;;;4.20;99.90;;;;;;5071058;28;20171;-71
2022/11/22 02:32:44;;;;;;;46.55;19.20;;;4.20;99.90;;;;;;5070140;28;20110;-71
2022/11/22 02:35:21;;;;;;;48.53;18.80;;;4.20;99.90;;;;;;5070907;28;20108;-72
2022/11/22 02:38:00;;;;;;;47.22;18.52;;;4.30;99.90;;;;;;5069766;28;20033;-72
2022/11/22 02:40:31;;;;;;;53.97;20.05;;;4.30;99.90;;;;;;5069706;28;20537;-71
2022/11/22 02:43:06;;;;;;;42.35;17.60;;;4.20;99.90;;;;;;5070040;28;20032;-71
2022/11/22 02:45:32;;;;;;;49.55;19.70;;;4.20;99.90;;;;;;5069831;28;20040;-70
2022/11/22 02:48:10;;;;;;;45.92;18.98;;;4.20;99.90;;;;;;5070762;28;20044;-71
2022/11/22 02:50:36;;;;;;;45.97;18.95;;;4.20;99.90;;;;;;5070885;28;20036;-71
2022/11/22 02:53:02;;;;;;;48.78;20.13;;;4.30;99.90;;;;;;5070674;28;20024;-72
2022/11/22 02:55:28;;;;;;;52.33;20.15;;;4.40;99.90;;;;;;5070578;28;20025;-70
2022/11/22 02:57:54;;;;;;;50.30;20.35;;;4.40;99.90;;;;;;5070086;28;20041;-70
2022/11/22 03:00:20;;;;;;;52.70;21.30;;;4.30;99.90;;;;;;5069554;28;20146;-71
2022/11/22 03:02:45;;;;;;;58.53;22.27;;;4.30;99.90;;;;;;5070734;28;20083;-71
2022/11/22 03:05:11;;;;;;;51.15;20.30;;;4.20;99.90;;;;;;5070651;28;20032;-72
2022/11/22 03:07:36;;;;;;;59.17;21.58;;;4.20;99.90;;;;;;5070370;28;20036;-71
2022/11/22 03:10:02;;;;;;;57.47;22.08;;;4.20;99.90;;;;;;5071012;28;20048;-71
2022/11/22 03:12:28;;;;;;;54.40;22.92;;;4.20;99.90;;;;;;5070426;28;20139;-69
2022/11/22 03:14:54;;;;;;;56.17;22.00;;;4.20;99.90;;;;;;5069660;28;20052;-70
2022/11/22 03:17:19;;;;;;;52.20;21.00;;;4.30;99.90;;;;;;5070569;28;20063;-72
2022/11/22 03:19:45;;;;;;;53.33;21.35;;;4.20;99.90;;;;;;5070711;28;20032;-71
2022/11/22 03:22:10;;;;;;;59.95;21.90;;;4.10;99.90;;;;;;5069652;28;20115;-71
2022/11/22 03:24:36;;;;;;;56.67;22.75;;;4.20;99.90;;;;;;5070862;28;20021;-71
2022/11/22 03:27:02;;;;;;;67.28;29.88;;;4.20;99.90;;;;;;5071962;28;20064;-71
2022/11/22 03:29:27;;;;;;;66.18;28.35;;;4.20;99.90;;;;;;5073349;28;20032;-70
2022/11/22 03:31:53;;;;;;;62.85;22.83;;;4.30;99.90;;;;;;5074432;28;20470;-70
2022/11/22 03:34:18;;;;;;;62.85;22.20;;;4.20;99.90;;;;;;5074307;28;20029;-71
2022/11/22 03:36:44;;;;;;;55.45;20.88;;;4.30;99.90;;;;;;5074741;28;20465;-70
2022/11/22 03:39:10;;;;;;;51.88;20.95;;;4.30;99.90;;;;;;5073161;28;20052;-71
2022/11/22 03:41:36;;;;;;;62.10;22.75;;;4.40;99.90;;;;;;5074281;28;20446;-71
2022/11/22 03:44:02;;;;;;;54.75;21.38;;;4.30;99.90;;;;;;5074211;28;20057;-71
2022/11/22 03:46:28;;;;;;;53.70;21.35;;;4.30;99.90;;;;;;5074239;28;20262;-72
2022/11/22 03:48:53;;;;;;;57.63;23.23;;;4.40;99.90;;;;;;5074682;28;20118;-72
2022/11/22 03:51:19;;;;;;;58.85;22.50;;;4.50;99.90;;;;;;5074011;28;20105;-71
2022/11/22 03:53:45;;;;;;;58.92;21.80;;;4.50;99.90;;;;;;5074141;28;20048;-70
2022/11/22 03:56:10;;;;;;;56.15;22.00;;;4.50;99.90;;;;;;5073987;28;20037;-71
2022/11/22 03:58:36;;;;;;;51.95;21.08;;;4.60;99.90;;;;;;5072846;28;20033;-70
2022/11/22 04:01:02;;;;;;;56.05;21.17;;;4.40;99.90;;;;;;5074343;28;20078;-69
2022/11/22 04:03:28;;;;;;;54.13;20.77;;;4.40;99.90;;;;;;5073856;28;20055;-72
2022/11/22 04:05:53;;;;;;;52.83;21.00;;;4.50;99.90;;;;;;5073753;28;20067;-72
2022/11/22 04:08:19;;;;;;;53.42;21.63;;;4.50;99.90;;;;;;5073601;28;20462;-71
2022/11/22 04:10:46;;;;;;;53.70;20.75;;;4.40;99.90;;;;;;5073591;28;20136;-71
2022/11/22 04:13:12;;;;;;;63.17;23.88;;;4.30;99.90;;;;;;5073863;28;20401;-71
2022/11/22 04:15:38;;;;;;;51.38;22.30;;;4.30;99.90;;;;;;5074027;28;20673;-71
2022/11/22 04:18:03;;;;;;;54.05;20.23;;;4.30;99.90;;;;;;5073632;28;20111;-72
2022/11/22 04:23:19;;;;;;;55.65;22.05;;;4.30;99.90;;;;;;5073769;28;20067;-71
2022/11/22 04:25:47;;;;;;;53.17;20.45;;;4.30;99.90;;;;;;5073443;28;20125;-72
2022/11/22 04:28:15;;;;;;;55.90;20.65;;;4.30;99.90;;;;;;5073227;28;20085;-71
2022/11/22 04:33:26;;;;;;;55.63;21.10;;;4.20;99.90;;;;;;5073453;28;20078;-71
2022/11/22 04:35:52;;;;;;;52.80;20.02;;;4.20;99.90;;;;;;5073341;28;20029;-71
2022/11/22 04:38:19;;;;;;;47.05;19.48;;;4.30;99.90;;;;;;5072601;28;20039;-72
2022/11/22 04:40:45;;;;;;;61.05;20.42;;;4.30;99.90;;;;;;5073291;28;20040;-71
2022/11/22 04:46:13;;;;;;;49.55;19.90;;;4.20;99.90;;;;;;5093697;28;20066;-71
2022/11/22 04:48:40;;;;;;;46.45;19.33;;;4.20;99.90;;;;;;5093743;28;20111;-71
2022/11/22 04:53:50;;;;;;;43.42;17.98;;;4.30;99.90;;;;;;5093298;28;20035;-71
2022/11/22 04:56:16;;;;;;;51.20;19.58;;;4.30;99.90;;;;;;5093095;28;20033;-72
2022/11/22 04:58:42;;;;;;;49.13;20.50;;;4.30;99.90;;;;;;5092999;28;20032;-71
2022/11/22 05:01:07;;;;;;;50.15;20.30;;;4.40;99.90;;;;;;5092952;28;20015;-70
2022/11/22 05:03:33;;;;;;;48.13;20.95;;;4.30;99.90;;;;;;5093731;28;20560;-70
2022/11/22 05:06:04;;;;;;;51.70;19.77;;;4.30;99.90;;;;;;5092961;28;20086;-71
2022/11/22 05:08:30;;;;;;;46.13;19.73;;;4.40;99.90;;;;;;5092648;28;20036;-71
2022/11/22 05:10:55;;;;;;;45.72;18.48;;;4.30;99.90;;;;;;5074843;28;20040;-69
2022/11/22 05:13:41;;;;;;;46.15;18.88;;;4.40;99.90;;;;;;5092673;28;20099;-70
2022/11/22 05:16:10;;;;;;;42.92;18.50;;;4.30;99.90;;;;;;5092232;28;20024;-72
2022/11/22 05:18:36;;;;;;;41.42;18.23;;;4.20;99.90;;;;;;5093481;28;20135;-71
2022/11/22 05:21:13;;;;;;;44.10;18.38;;;4.20;99.90;;;;;;5092688;28;20042;-71
2022/11/22 05:23:55;;;;;;;44.13;19.25;;;4.20;99.90;;;;;;5092542;28;20115;-70
2022/11/22 05:26:22;;;;;;;36.28;16.35;;;4.20;99.90;;;;;;5074582;28;20442;-70
2022/11/22 05:28:48;;;;;;;39.60;17.35;;;4.30;99.90;;;;;;5074445;28;20122;-70
2022/11/22 05:31:22;;;;;;;45.08;18.98;;;4.30;99.90;;;;;;5092346;28;20028;-71
2022/11/22 05:33:50;;;;;;;40.75;17.33;;;4.30;99.90;;;;;;5092852;28;20035;-70
2022/11/22 05:36:16;;;;;;;41.50;18.25;;;4.20;99.90;;;;;;5092717;28;20052;-71
2022/11/22 05:38:42;;;;;;;43.40;17.95;;;4.20;99.90;;;;;;5092407;28;20063;-70
2022/11/22 05:41:10;;;;;;;40.17;17.95;;;4.30;99.90;;;;;;5092131;28;20474;-71
2022/11/22 05:43:36;;;;;;;;;;;4.10;99.90;;;;;;5092511;28;20137;-72
2022/11/22 05:46:05;;;;;;;38.80;16.13;;;4.20;99.90;;;;;;5074718;28;19904;-72
2022/11/22 05:48:31;;;;;;;40.75;17.17;;;4.30;99.90;;;;;;5092063;28;20040;-71
2022/11/22 05:50:56;;;;;;;41.17;17.65;;;4.30;99.90;;;;;;5091125;28;20031;-71
2022/11/22 05:53:22;;;;;;;43.17;18.08;;;4.30;99.90;;;;;;5073953;28;20116;-72
2022/11/22 05:55:48;;;;;;;43.38;18.92;;;4.30;99.90;;;;;;5091705;28;20039;-71
2022/11/22 05:58:13;;;;;;;45.63;18.13;;;4.30;99.90;;;;;;5074204;28;20023;-71
2022/11/22 06:00:39;;;;;;;49.80;18.90;;;4.30;99.90;;;;;;5092294;28;20020;-71
2022/11/22 06:03:04;;;;;;;39.08;17.13;;;4.40;99.90;;;;;;5092084;28;20040;-70
2022/11/22 06:05:30;;;;;;;38.78;16.42;;;4.40;99.90;;;;;;5092023;28;20028;-70
2022/11/22 06:07:58;;;;;;;41.53;17.77;;;4.50;99.90;;;;;;5073695;28;20470;-70
2022/11/22 06:10:23;;;;;;;40.22;17.35;;;4.40;99.90;;;;;;5091520;28;20020;-71
2022/11/22 06:12:49;;;;;;;39.90;17.15;;;4.40;99.90;;;;;;5092258;28;20429;-71
2022/11/22 06:15:15;;;;;;;42.38;16.83;;;4.40;99.90;;;;;;5091680;28;20032;-71
2022/11/22 06:17:41;;;;;;;41.83;17.50;;;4.40;99.90;;;;;;5091659;28;20032;-70
2022/11/22 06:20:07;;;;;;;41.88;16.80;;;4.40;99.90;;;;;;5091672;28;20168;-71
2022/11/22 06:22:33;;;;;;;36.63;16.85;;;4.30;99.90;;;;;;5091491;28;20119;-71
2022/11/22 06:24:59;;;;;;;42.90;16.58;;;4.30;99.90;;;;;;5091788;28;20544;-70
2022/11/22 06:27:24;;;;;;;38.70;17.50;;;4.30;99.90;;;;;;5091479;28;20036;-71
2022/11/22 06:29:50;;;;;;;35.20;15.90;;;4.40;99.90;;;;;;5091304;28;20039;-70
2022/11/22 06:32:16;;;;;;;79.03;33.58;;;4.30;99.90;;;;;;5091434;28;20043;-69
2022/11/22 06:34:41;;;;;;;53.33;23.65;;;4.40;99.90;;;;;;5091520;28;20164;-71
2022/11/22 06:37:07;;;;;;;39.38;17.05;;;4.50;99.90;;;;;;5091461;28;20024;-71
2022/11/22 06:39:33;;;;;;;37.20;15.63;;;4.50;99.90;;;;;;5073628;28;20128;-71
2022/11/22 06:41:59;;;;;;;34.35;15.90;;;4.60;99.90;;;;;;5091284;28;20032;-71
2022/11/22 06:44:24;;;;;;;39.63;16.08;;;4.50;99.90;;;;;;5090848;28;20078;-71
2022/11/22 06:46:50;;;;;;;34.90;15.68;;;4.60;99.90;;;;;;5091665;28;20036;-71
2022/11/22 06:49:16;;;;;;;37.72;16.25;;;4.60;99.90;;;;;;5091182;28;20476;-71
2022/11/22 06:51:41;;;;;;;34.45;15.50;;;4.70;99.90;;;;;;5073611;28;20066;-71
2022/11/22 06:54:10;;;;;;;35.20;16.00;;;4.70;99.90;;;;;;5090869;28;20023;-71
2022/11/22 06:56:37;;;;;;;36.15;15.13;;;4.70;99.90;;;;;;5073011;28;20047;-72
2022/11/22 06:59:05;;;;;;;38.25;16.38;;;4.70;99.90;;;;;;5090883;28;20039;-71
2022/11/22 07:01:32;;;;;;;38.58;14.45;;;4.70;99.90;;;;;;5090600;28;20462;-71
2022/11/22 07:03:59;;;;;;;34.90;14.82;;;4.70;99.90;;;;;;5073507;28;20115;-71
2022/11/22 07:06:27;;;;;;;34.00;15.03;;;4.80;99.90;;;;;;5090902;28;20043;-71
2022/11/22 07:08:53;;;;;;;33.45;13.85;;;4.80;99.90;;;;;;5090345;28;20265;-71
2022/11/22 07:11:25;;;;;;;28.90;14.80;;;4.80;99.90;;;;;;5090602;28;20028;-70
2022/11/22 07:13:51;;;;;;;33.10;15.20;;;4.70;99.90;;;;;;5090802;28;20481;-71
2022/11/22 07:16:19;;;;;;;33.50;14.40;;;4.70;99.90;;;;;;5090714;28;20028;-70
2022/11/22 07:18:46;;;;;;;35.90;16.15;;;4.60;99.90;;;;;;5091246;28;20028;-71
2022/11/22 07:21:15;;;;;;;38.53;17.05;;;4.70;99.90;;;;;;5072820;28;20361;-70
2022/11/22 07:23:42;;;;;;;37.00;16.17;;;4.60;99.90;;;;;;5090779;28;20033;-73
2022/11/22 07:26:08;;;;;;;36.20;15.43;;;4.70;99.90;;;;;;5090921;28;20032;-72
2022/11/22 07:28:35;;;;;;;33.88;14.90;;;4.70;99.90;;;;;;5090695;28;20124;-71
2022/11/22 07:31:03;;;;;;;37.00;16.17;;;4.60;99.90;;;;;;5073640;28;20312;-72
2022/11/22 07:33:28;;;;;;;31.42;13.60;;;4.70;99.90;;;;;;5073265;28;20028;-72
2022/11/22 07:35:54;;;;;;;28.55;12.85;;;4.70;99.90;;;;;;5090968;28;20036;-73
2022/11/22 07:38:20;;;;;;;31.23;14.02;;;4.70;99.90;;;;;;5090956;28;20389;-72
2022/11/22 07:40:46;;;;;;;41.03;18.83;;;4.80;99.90;;;;;;5090590;28;20028;-70
2022/11/22 07:43:12;;;;;;;35.30;14.60;;;4.80;99.90;;;;;;5072527;28;20434;-71
2022/11/22 07:45:37;;;;;;;29.70;13.90;;;4.80;99.90;;;;;;5091381;28;20027;-70
2022/11/22 07:48:03;;;;;;;27.35;12.88;;;4.90;99.90;;;;;;5090823;28;20042;-69
2022/11/22 07:50:29;;;;;;;28.75;13.27;;;4.90;99.90;;;;;;5081671;28;20059;-74
2022/11/22 07:52:58;;;;;;;32.00;14.07;;;4.90;99.90;;;;;;5071367;28;20044;-73
2022/11/22 07:55:25;;;;;;;29.27;14.00;;;4.90;99.90;;;;;;5053876;28;20336;-74
2022/11/22 07:57:52;;;;;;;32.40;13.95;;;4.90;99.90;;;;;;5054125;28;20082;-72
2022/11/22 08:00:18;;;;;;;27.92;12.43;;;5.00;99.90;;;;;;5070407;28;20393;-74
2022/11/22 08:02:44;;;;;;;32.15;13.10;;;5.10;99.90;;;;;;5070478;28;20039;-72
2022/11/22 08:05:10;;;;;;;33.00;14.35;;;5.20;99.90;;;;;;5071081;28;20041;-72
2022/11/22 08:07:36;;;;;;;37.20;15.90;;;5.20;99.90;;;;;;5069838;28;20098;-72
2022/11/22 08:10:02;;;;;;;28.95;13.73;;;5.20;99.90;;;;;;5071571;28;20074;-72
2022/11/22 08:12:28;;;;;;;28.13;12.60;;;5.30;99.90;;;;;;5071497;28;20033;-72
2022/11/22 08:14:54;;;;;;;27.63;13.02;;;5.30;99.90;;;;;;5073289;28;20044;-72
2022/11/22 08:17:19;;;;;;;26.25;13.10;;;5.30;99.90;;;;;;5073994;28;20095;-73
2022/11/22 08:19:48;;;;;;;23.95;11.30;;;5.40;99.90;;;;;;5074670;28;20029;-73
2022/11/22 08:22:13;;;;;;;22.83;11.60;;;5.50;99.90;;;;;;5074140;28;20021;-72
2022/11/22 08:24:39;;;;;;;24.40;11.93;;;5.40;99.90;;;;;;5073691;28;20031;-73
2022/11/22 08:27:05;;;;;;;28.98;12.73;;;5.50;99.90;;;;;;5074076;28;20024;-73
2022/11/22 08:29:30;;;;;;;28.92;11.90;;;5.50;99.90;;;;;;5074001;28;20041;-74
2022/11/22 08:31:56;;;;;;;24.23;11.52;;;5.60;99.90;;;;;;5074981;28;20029;-72
2022/11/22 08:34:22;;;;;;;26.63;11.85;;;5.50;99.90;;;;;;5074720;28;20025;-71
2022/11/22 08:36:47;;;;;;;27.98;12.27;;;5.50;99.90;;;;;;5074293;28;20034;-72
2022/11/22 08:39:13;;;;;;;28.25;13.80;;;5.50;99.90;;;;;;5074860;28;20086;-73
2022/11/22 08:41:39;;;;;;;32.45;14.50;;;5.50;99.90;;;;;;5074644;28;20078;-72
2022/11/22 08:44:04;;;;;;;27.08;11.98;;;5.50;99.90;;;;;;5073871;28;20060;-72
2022/11/22 08:46:30;;;;;;;24.35;11.02;;;5.60;99.90;;;;;;5073344;28;20465;-74
2022/11/22 08:48:56;;;;;;;26.48;11.60;;;5.60;99.90;;;;;;5074068;28;20060;-72
2022/11/22 08:51:21;;;;;;;22.27;10.63;;;5.60;99.90;;;;;;5073857;28;20039;-73
2022/11/22 08:53:47;;;;;;;22.92;10.75;;;5.70;99.90;;;;;;5094582;28;20546;-74
2022/11/22 08:56:15;;;;;;;23.98;11.32;;;5.70;99.90;;;;;;5094398;28;20085;-72
2022/11/22 08:58:41;;;;;;;30.75;13.98;;;5.70;99.90;;;;;;5094678;28;20453;-74
2022/11/22 09:01:12;;;;;;;26.65;12.20;;;5.70;99.90;;;;;;5095144;28;20027;-76
2022/11/22 09:03:39;;;;;;;24.02;10.63;;;5.70;99.90;;;;;;5095789;28;20154;-75
2022/11/22 09:06:10;;;;;;;26.02;11.55;;;5.80;99.90;;;;;;5094186;28;20063;-75
2022/11/22 09:08:36;;;;;;;22.50;9.82;;;5.80;99.90;;;;;;5093788;28;20120;-74
2022/11/22 09:11:07;;;;;;;19.75;9.50;;;5.80;99.90;;;;;;5094220;28;20040;-74
2022/11/22 09:13:34;;;;;;;25.52;10.63;;;5.90;99.90;;;;;;5075563;28;20024;-74
2022/11/22 09:16:14;;;;;;;21.67;10.05;;;6.00;99.90;;;;;;5093728;28;20360;-74
2022/11/22 09:18:41;;;;;;;23.02;10.38;;;6.00;99.90;;;;;;5093582;28;20051;-75
2022/11/22 09:21:09;;;;;;;25.60;11.23;;;6.00;99.90;;;;;;5093190;28;20070;-75
2022/11/22 09:23:35;;;;;;;20.98;9.85;;;6.20;99.90;;;;;;5093568;28;20131;-74
2022/11/22 09:26:06;;;;;;;27.42;11.02;;;6.20;99.90;;;;;;5092938;28;20031;-74
2022/11/22 09:28:33;;;;;;;29.23;13.23;;;6.30;99.90;;;;;;5093986;28;20040;-74
2022/11/22 09:31:19;;;;;;;20.10;9.90;;;6.50;99.90;;;;;;5093974;28;20095;-72
2022/11/22 09:33:45;;;;;;;19.60;7.93;;;6.50;99.90;;;;;;5094103;28;20044;-73
2022/11/22 09:36:12;;;;;;;16.95;8.73;;;6.70;99.90;;;;;;5093526;28;20097;-74
2022/11/22 09:38:38;;;;;;;16.42;8.32;;;6.70;99.90;;;;;;5074992;28;20032;-72
2022/11/22 09:41:35;;;;;;;23.15;9.35;;;6.80;99.90;;;;;;5092834;28;20032;-73
2022/11/22 09:44:01;;;;;;;15.90;8.38;;;7.00;99.90;;;;;;5093096;28;20063;-75
2022/11/22 09:47:04;;;;;;;19.33;9.27;;;7.10;99.90;;;;;;5075671;28;20024;-74
2022/11/22 09:49:45;;;;;;;19.45;8.73;;;7.10;99.90;;;;;;5073017;28;20056;-74
2022/11/22 09:52:43;;;;;;;15.27;8.60;;;7.20;99.90;;;;;;5073135;28;20530;-74
2022/11/22 09:55:26;;;;;;;18.48;8.50;;;7.10;99.90;;;;;;5072570;28;20056;-72
2022/11/22 09:58:01;;;;;;;15.50;8.90;;;7.30;99.90;;;;;;5080041;28;20025;-87
2022/11/22 10:00:28;;;;;;;26.27;12.70;;;7.30;99.90;;;;;;5072308;28;20031;-72
2022/11/22 10:03:03;;;;;;;18.05;9.40;;;7.40;99.90;;;;;;5073071;28;20028;-73
2022/11/22 10:05:55;;;;;;;16.13;8.60;;;7.40;99.90;;;;;;5072887;28;20033;-76
2022/11/22 10:09:02;;;;;;;16.20;8.07;;;7.50;99.90;;;;;;5061363;28;20032;-76
2022/11/22 10:11:58;;;;;;;14.80;8.05;;;7.50;99.90;;;;;;5072813;28;20396;-76
2022/11/22 10:14:53;;;;;;;12.10;7.32;;;7.60;99.90;;;;;;5053997;28;20024;-77
2022/11/22 10:17:37;;;;;;;13.23;7.20;;;7.70;99.90;;;;;;5073541;28;20032;-75
2022/11/22 10:20:18;;;;;;;15.63;7.15;;;7.70;99.90;;;;;;5071945;28;20060;-74
2022/11/22 10:22:44;;;;;;;16.83;7.25;;;7.90;99.90;;;;;;5073675;28;20466;-74
2022/11/22 10:25:24;;;;;;;12.43;6.72;;;8.00;99.90;;;;;;5055207;28;20039;-73
2022/11/22 10:27:56;;;;;;;14.98;7.30;;;8.20;99.90;;;;;;5073698;28;20067;-73
2022/11/22 10:30:22;;;;;;;13.18;7.15;;;8.20;99.80;;;;;;5072183;28;20492;-74
2022/11/22 10:33:11;;;;;;;14.30;6.90;;;8.30;99.80;;;;;;5071825;28;20036;-72
2022/11/22 10:36:01;;;;;;;13.52;6.70;;;8.30;99.80;;;;;;5072961;28;20114;-72
2022/11/22 10:38:38;;;;;;;14.00;6.65;;;8.30;99.60;;;;;;5072543;28;20025;-72
2022/11/22 10:41:29;;;;;;;17.33;7.20;;;8.40;99.70;;;;;;5072467;28;20474;-71
2022/11/22 10:44:10;;;;;;;12.80;6.57;;;8.60;99.50;;;;;;5072319;28;20689;-72
2022/11/22 10:47:03;;;;;;;13.35;6.50;;;8.70;99.50;;;;;;5071834;28;20069;-72
2022/11/22 10:49:46;;;;;;;14.70;7.03;;;8.70;99.30;;;;;;5070209;28;20370;-73
2022/11/22 10:52:30;;;;;;;16.70;6.80;;;8.90;99.30;;;;;;5070256;28;20037;-73
2022/11/22 10:55:14;;;;;;;11.48;6.43;;;8.90;99.00;;;;;;5073334;28;20534;-73
2022/11/22 10:58:07;;;;;;;11.30;7.00;;;9.10;99.20;;;;;;5101203;28;20439;-74
2022/11/22 11:00:39;;;;;;;14.77;7.40;;;9.40;99.20;;;;;;5091449;28;20132;-73
2022/11/22 11:03:22;;;;;;;13.20;6.75;;;9.70;98.80;;;;;;5091069;28;20098;-75
2022/11/22 11:05:57;;;;;;;32.85;14.43;;;9.90;98.70;;;;;;5073471;28;20024;-72
2022/11/22 11:08:33;;;;;;;13.90;6.90;;;10.20;97.80;;;;;;5073201;28;20452;-71
2022/11/22 11:11:00;;;;;;;16.55;7.65;;;10.60;97.40;;;;;;5090932;28;20028;-71
2022/11/22 11:13:30;;;;;;;13.93;6.38;;;10.90;97.00;;;;;;5091252;28;20032;-73
2022/11/22 11:15:59;;;;;;;14.85;7.13;;;11.00;96.50;;;;;;5091543;28;20455;-73
2022/11/22 11:18:53;;;;;;;12.38;6.22;;;11.30;96.50;;;;;;5091405;28;20040;-75
2022/11/22 11:21:19;;;;;;;10.95;5.32;;;11.80;96.20;;;;;;5086867;28;20105;-74
2022/11/22 11:23:46;;;;;;;10.00;4.65;;;12.00;95.80;;;;;;5073299;28;20446;-75
2022/11/22 11:26:34;;;;;;;9.80;3.55;;;12.30;95.50;;;;;;5073057;28;20028;-73
2022/11/22 11:29:17;;;;;;;8.82;3.13;;;12.70;95.20;;;;;;5090944;28;20131;-75
2022/11/22 11:31:46;;;;;;;8.90;2.90;;;12.70;93.90;;;;;;5090863;28;20111;-73
2022/11/22 11:34:24;;;;;;;9.35;3.50;;;12.60;94.00;;;;;;5090700;28;20020;-74
2022/11/22 11:36:52;;;;;;;;;;;12.60;94.10;;;;;;5074444;28;20024;-72
2022/11/22 11:39:26;;;;;;;14.20;4.15;;;12.20;93.90;;;;;;5091510;28;19912;-72
2022/11/22 11:41:52;;;;;;;8.82;4.05;;;12.30;94.50;;;;;;5091203;28;20063;-73
2022/11/22 11:44:36;;;;;;;9.25;4.07;;;12.20;94.40;;;;;;5091385;28;20071;-73
2022/11/22 11:47:03;;;;;;;8.85;4.95;;;12.10;94.50;;;;;;5091209;28;20118;-75
2022/11/22 11:49:33;;;;;;;12.18;3.55;;;11.90;94.50;;;;;;5093269;28;20036;-73
2022/11/22 11:52:14;;;;;;;7.25;4.20;;;11.80;94.50;;;;;;5095945;28;20024;-74
2022/11/22 11:54:46;;;;;;;10.18;4.50;;;11.70;94.60;;;;;;5095753;28;20040;-73
2022/11/22 11:57:11;;;;;;;7.47;3.55;;;11.60;94.80;;;;;;5095673;28;20064;-73
2022/11/22 11:59:37;;;;;;;9.95;4.95;;;11.50;94.90;;;;;;5095162;28;20048;-72
2022/11/22 12:02:21;;;;;;;9.23;3.72;;;11.40;95.10;;;;;;5095115;28;20044;-71
2022/11/22 12:04:53;;;;;;;11.25;3.80;;;11.20;95.00;;;;;;5095115;28;20039;-73
2022/11/22 12:07:24;;;;;;;8.40;3.72;;;11.20;95.30;;;;;;5076804;28;20111;-73
2022/11/22 12:09:55;;;;;;;9.18;3.83;;;11.10;95.30;;;;;;5095622;28;20449;-72
2022/11/22 12:12:39;;;;;;;8.57;3.55;;;11.10;95.40;;;;;;5094973;28;20490;-73
2022/11/22 12:15:42;;;;;;;8.35;3.60;;;11.00;95.40;;;;;;5094795;28;20089;-72
2022/11/22 12:18:36;;;;;;;9.00;4.93;;;10.80;95.60;;;;;;5095309;28;20032;-71
2022/11/22 12:21:22;;;;;;;12.52;3.80;;;10.80;95.70;;;;;;5076619;28;20375;-70
2022/11/22 12:23:57;;;;;;;9.25;3.75;;;10.80;95.90;;;;;;5094028;28;20127;-70
2022/11/22 12:26:25;;;;;;;8.70;3.60;;;10.80;96.00;;;;;;5093641;28;20032;-71
2022/11/22 12:28:51;;;;;;;;;;;10.80;96.00;;;;;;5094211;28;20264;-73
2022/11/22 12:31:38;;;;;;;9.60;4.30;;;10.70;96.00;;;;;;5093874;28;20359;-72
2022/11/22 12:34:24;;;;;;;10.18;3.95;;;10.60;96.10;;;;;;5076497;28;20314;-71
2022/11/22 12:37:11;;;;;;;9.68;4.07;;;10.60;96.10;;;;;;5093716;28;20032;-71
2022/11/22 12:39:38;;;;;;;7.13;4.03;;;10.40;96.20;;;;;;5094304;28;20350;-71
2022/11/22 12:42:12;;;;;;;16.05;4.57;;;10.40;96.40;;;;;;5094152;28;20404;-73
2022/11/22 12:44:43;;;;;;;9.30;3.80;;;10.40;96.20;;;;;;5094415;28;20350;-74
2022/11/22 12:47:14;;;;;;;10.80;4.38;;;10.40;96.50;;;;;;5076784;28;20401;-72
2022/11/22 12:50:06;;;;;;;9.68;4.00;;;10.50;96.60;;;;;;5094361;28;20051;-73
2022/11/22 12:52:44;;;;;;;12.73;3.72;;;10.50;96.40;;;;;;5093567;28;20450;-72
2022/11/22 12:55:22;;;;;;;7.35;3.25;;;10.50;96.30;;;;;;5075479;28;20116;-72
2022/11/22 12:57:51;;;;;;;8.05;3.00;;;10.40;96.30;;;;;;5094318;28;20070;-69
2022/11/22 13:00:20;;;;;;;10.18;3.33;;;10.40;96.30;;;;;;5093339;28;20343;-70
2022/11/22 13:02:52;;;;;;;11.40;3.53;;;10.40;96.40;;;;;;5094012;28;20393;-70
2022/11/22 13:05:25;;;;;;;7.57;3.20;;;10.30;96.30;;;;;;5076277;28;20032;-72